Time;durP1;ratioP1;P1;durP2;ratioP2;P2;SDS_P1;SDS_P2;PMS_P1;PMS_P2;Temp;Humidity;BMP_temperature;BMP_pressure;BME280_temperature;BME280_humidity;BME280_pressure;Samples;Min_cycle;Max_cycle;Signal;HPM_P1;HPM_P2
2022/11/28 05:01:07;;;;;;;35.45;15.80;;;;;;;8.03;91.22;101324.50;5523327;31;2681086;-55
2022/11/28 05:04:12;;;;;;;29.27;15.52;;;;;;;8.03;91.22;101324.50;5583856;31;33346;-55
2022/11/28 05:07:14;;;;;;;30.08;15.25;;;;;;;7.41;88.17;101322.50;5584123;32;34213;-55
2022/11/28 05:10:17;;;;;;;31.87;16.23;;;;;;;7.48;98.77;101330.38;5583771;31;34238;-55
2022/11/28 05:13:19;;;;;;;30.90;15.63;;;;;;;7.58;97.27;101327.91;5584099;31;33711;-55
2022/11/28 05:16:22;;;;;;;30.67;15.95;;;;;;;7.48;89.75;101333.06;5583994;31;34346;-55
2022/11/28 05:19:24;;;;;;;29.73;15.15;;;;;;;8.01;100.00;101323.91;5583922;31;33608;-55
2022/11/28 05:22:27;;;;;;;32.75;17.55;;;;;;;7.99;99.50;101328.72;5583802;32;33389;-55
2022/11/28 05:25:29;;;;;;;32.42;17.23;;;;;;;8.06;92.91;101334.72;5583981;31;33525;-55
2022/11/28 05:28:31;;;;;;;33.42;16.77;;;;;;;7.98;90.07;101330.56;5583865;32;33693;-55
2022/11/28 05:31:33;;;;;;;31.08;15.88;;;;;;;7.71;84.06;101332.97;5583340;31;34354;-55
2022/11/28 05:34:36;;;;;;;31.12;15.52;;;;;;;7.79;91.42;101333.69;5583763;31;34246;-56
2022/11/28 05:37:38;;;;;;;31.75;15.60;;;;;;;7.62;92.15;101330.94;5583811;32;34424;-55
2022/11/28 05:40:43;;;;;;;31.67;15.65;;;;;;;7.68;84.62;101332.66;5583329;31;33559;-55
2022/11/28 05:43:45;;;;;;;31.10;15.88;;;;;;;7.76;96.56;101341.09;5574633;31;34378;-55
2022/11/28 05:46:48;;;;;;;33.25;15.60;;;;;;;7.66;82.87;101350.78;5563861;32;33583;-55
2022/11/28 05:49:50;;;;;;;30.27;16.73;;;;;;;7.51;84.36;101345.94;5563899;32;33631;-55
2022/11/28 05:52:52;;;;;;;31.40;17.10;;;;;;;7.49;83.33;101356.84;5563887;32;33880;-55
2022/11/28 05:55:54;;;;;;;32.45;17.85;;;;;;;7.53;88.23;101362.53;5563894;32;33715;-55
2022/11/28 05:58:56;;;;;;;31.73;16.70;;;;;;;7.47;82.75;101361.59;5563292;32;33707;-55
2022/11/28 06:01:59;;;;;;;35.47;17.35;;;;;;;7.50;87.52;101353.13;5563448;32;34226;-55
2022/11/28 06:05:02;;;;;;;32.58;17.50;;;;;;;7.45;84.57;101357.53;5563782;32;33636;-55
2022/11/28 06:08:22;;;;;;;36.83;19.48;;;;;;;7.58;94.65;101359.94;5563695;32;34327;-55
2022/11/28 06:11:28;;;;;;;31.50;16.20;;;;;;;7.60;84.59;101355.19;5555154;32;33916;-55
2022/11/28 06:14:30;;;;;;;33.40;17.92;;;;;;;7.53;92.66;101354.50;5550502;32;33614;-55
2022/11/28 06:17:32;;;;;;;34.83;17.70;;;;;;;7.48;85.13;101357.91;5550361;32;34287;-55
2022/11/28 06:20:34;;;;;;;33.47;19.23;;;;;;;7.41;83.71;101351.84;5549539;32;34306;-55
2022/11/28 06:23:37;;;;;;;35.78;20.15;;;;;;;7.37;84.51;101355.25;5565032;32;33590;-55
2022/11/28 06:26:39;;;;;;;36.83;19.30;;;;;;;7.58;92.40;101361.81;5569046;32;34238;-55
2022/11/28 06:29:42;;;;;;;40.08;20.73;;;;;;;7.63;91.63;101359.25;5566028;32;33738;-55
2022/11/28 06:32:44;;;;;;;40.53;20.60;;;;;;;7.71;91.88;101350.84;5568845;32;34260;-55
2022/11/28 06:35:47;;;;;;;39.80;19.83;;;;;;;7.86;90.53;101353.84;5568431;32;33626;-56
2022/11/28 06:38:49;;;;;;;38.33;21.10;;;;;;;7.95;87.55;101346.28;5568677;32;33613;-55
2022/11/28 06:41:51;;;;;;;37.28;20.65;;;;;;;7.98;88.73;101356.47;5568278;32;34317;-55
2022/11/28 06:44:53;;;;;;;37.22;19.80;;;;;;;7.99;88.42;101352.75;5561772;32;33574;-55
2022/11/28 06:47:55;;;;;;;36.55;20.15;;;;;;;8.04;87.70;101362.69;5549444;32;33515;-55
2022/11/28 06:51:02;;;;;;;36.42;19.95;;;;;;;8.10;92.39;101370.56;5564258;32;34269;-55
2022/11/28 06:54:06;;;;;;;39.28;20.70;;;;;;;7.85;79.46;101365.56;5569288;32;34373;-55
2022/11/28 06:57:08;;;;;;;43.47;21.25;;;;;;;7.88;93.48;101373.09;5569164;32;33690;-55
2022/11/28 07:00:11;;;;;;;34.72;18.80;;;;;;;7.91;79.45;101377.97;5565627;32;33190;-55
2022/11/28 07:03:13;;;;;;;36.55;21.27;;;;;;;7.91;95.56;101375.31;5562610;32;33613;-55
2022/11/28 07:06:18;;;;;;;38.55;20.92;;;;;;;7.81;87.68;101383.09;5567779;32;34330;-57
2022/11/28 07:09:20;;;;;;;40.42;22.17;;;;;;;7.81;84.66;101371.59;5567989;32;33694;-54
2022/11/28 07:12:22;;;;;;;38.95;19.80;;;;;;;7.80;82.78;101375.34;5560297;32;33638;-56
2022/11/28 07:15:25;;;;;;;36.70;19.50;;;;;;;8.06;94.10;101373.97;5569363;32;34070;-55
2022/11/28 07:18:27;;;;;;;34.25;19.75;;;;;;;8.06;88.44;101380.09;5567977;32;33668;-55
2022/11/28 07:21:30;;;;;;;37.17;19.92;;;;;;;7.94;88.42;101374.00;5567443;32;33794;-55
2022/11/28 07:24:33;;;;;;;33.70;19.25;;;;;;;7.89;85.97;101372.06;5562349;32;33524;-55
2022/11/28 07:27:35;;;;;;;39.63;21.62;;;;;;;7.94;88.60;101365.97;5567206;32;33823;-55
2022/11/28 07:30:37;;;;;;;36.38;19.75;;;;;;;7.89;86.79;101379.25;5568020;32;33638;-55
2022/11/28 07:33:41;;;;;;;36.15;20.27;;;;;;;7.67;84.25;101371.88;5565370;32;33816;-55
2022/11/28 07:36:44;;;;;;;34.50;19.37;;;;;;;7.61;83.76;101377.34;5566339;32;33503;-55
2022/11/28 07:39:46;;;;;;;35.53;18.95;;;;;;;7.76;83.67;101375.81;5568315;32;33757;-54
2022/11/28 07:42:49;;;;;;;36.70;20.85;;;;;;;7.72;83.87;101374.66;5568069;32;33645;-55
2022/11/28 07:45:51;;;;;;;37.22;19.60;;;;;;;7.73;81.62;101368.25;5568351;32;33557;-55
2022/11/28 07:49:03;;;;;;;37.30;19.42;;;;;;;7.79;92.61;101363.03;5566579;32;33779;-55
2022/11/28 07:52:05;;;;;;;36.55;19.90;;;;;;;7.89;89.02;101361.38;5567006;32;33311;-54
2022/11/28 07:55:07;;;;;;;35.20;19.33;;;;;;;7.96;88.30;101346.00;5568546;32;33539;-55
2022/11/28 07:58:10;;;;;;;33.30;17.50;;;;;;;7.93;77.97;101346.50;5566128;32;33599;-55
2022/11/28 08:01:16;;;;;;;32.42;17.62;;;;;;;7.87;96.16;101341.28;5567865;32;34288;-55
2022/11/28 08:04:18;;;;;;;34.63;18.95;;;;;;;8.06;85.82;101339.25;5563639;32;33678;-55
2022/11/28 08:07:20;;;;;;;32.08;17.65;;;;;;;8.12;84.45;101347.09;5568224;32;33580;-54
2022/11/28 08:10:23;;;;;;;32.50;18.70;;;;;;;7.99;77.46;101344.72;5569120;32;33512;-56
2022/11/28 08:13:26;;;;;;;33.63;18.10;;;;;;;8.05;78.09;101341.13;5567471;32;33370;-55
2022/11/28 08:16:29;;;;;;;28.33;16.73;;;;;;;7.97;78.27;101341.47;5564767;32;34263;-55
2022/11/28 08:19:31;;;;;;;30.90;17.50;;;;;;;7.92;80.80;101344.88;5565751;32;33703;-55
2022/11/28 08:22:37;;;;;;;30.77;17.60;;;;;;;8.06;83.70;101340.06;5562060;32;34183;-55
2022/11/28 08:25:39;;;;;;;32.92;17.00;;;;;;;7.99;74.55;101345.53;5555581;32;33589;-55
2022/11/28 08:28:42;;;;;;;31.05;15.45;;;;;;;7.90;78.66;101352.31;5558870;32;34295;-55
2022/11/28 08:31:45;;;;;;;28.45;16.52;;;;;;;8.39;79.33;101347.34;5549986;32;33837;-55
2022/11/28 08:34:47;;;;;;;29.98;16.02;;;;;;;8.22;72.55;101351.81;5563503;32;33687;-55
2022/11/28 08:37:49;;;;;;;27.25;16.90;;;;;;;8.20;73.41;101356.59;5566607;32;34320;-55
2022/11/28 08:40:59;;;;;;;27.87;15.75;;;;;;;8.31;87.89;101362.91;5566167;32;33723;-55
2022/11/28 08:44:02;;;;;;;25.70;15.48;;;;;;;8.05;73.06;101364.34;5566773;32;33644;-55
2022/11/28 08:47:04;;;;;;;25.62;15.20;;;;;;;7.99;78.48;101360.75;5565751;32;34366;-55
2022/11/28 08:50:10;;;;;;;25.58;15.85;;;;;;;7.96;69.99;101361.22;5563949;32;33697;-55
2022/11/28 08:53:12;;;;;;;27.00;14.87;;;;;;;7.95;72.02;101356.94;5559204;32;34344;-56
2022/11/28 08:56:19;;;;;;;26.05;14.73;;;;;;;7.80;73.11;101365.47;5557718;32;31751;-55
2022/11/28 08:59:22;;;;;;;22.55;13.43;;;;;;;7.84;71.58;101361.25;5554036;32;34305;-55
2022/11/28 09:02:24;;;;;;;18.52;11.50;;;;;;;8.17;75.23;101368.56;5565819;32;33716;-55
2022/11/28 09:05:28;;;;;;;19.42;12.18;;;;;;;8.40;84.36;101367.66;5565960;32;35462;-55
2022/11/28 09:08:30;;;;;;;22.02;12.98;;;;;;;8.69;79.42;101367.59;5566837;32;34157;-55
2022/11/28 09:11:32;;;;;;;23.80;13.68;;;;;;;8.55;76.16;101355.63;5566588;32;33680;-55
2022/11/28 09:14:34;;;;;;;26.05;13.48;;;;;;;8.38;72.94;101345.72;5565362;32;32867;-55
2022/11/28 09:17:37;;;;;;;24.98;14.63;;;;;;;8.41;70.67;101353.25;5566991;32;34346;-55
2022/11/28 09:20:39;;;;;;;27.55;15.80;;;;;;;8.32;69.08;101343.97;5564819;32;33641;-56
2022/11/28 09:23:43;;;;;;;28.90;15.52;;;;;;;8.23;73.49;101343.56;5566326;32;33617;-55
2022/11/28 09:26:45;;;;;;;24.58;14.55;;;;;;;8.27;79.82;101345.75;5565589;32;33554;-56
2022/11/28 09:29:48;;;;;;;22.85;13.57;;;;;;;8.50;77.63;101336.81;5562799;32;32214;-55
2022/11/28 09:32:50;;;;;;;25.75;15.15;;;;;;;8.53;77.19;101344.34;5564866;32;34319;-55
2022/11/28 09:35:54;;;;;;;28.42;15.23;;;;;;;8.45;69.20;101334.87;5564615;32;34329;-55
2022/11/28 09:38:59;;;;;;;26.87;14.10;;;;;;;8.40;77.60;101338.25;5566874;32;34311;-55
2022/11/28 09:42:12;;;;;;;29.35;15.40;;;;;;;8.50;80.95;101336.81;5560981;32;33834;-55
2022/11/28 09:45:18;;;;;;;23.92;14.93;;;;;;;8.63;78.04;101331.16;5553114;32;34091;-56
2022/11/28 09:48:43;;;;;;;25.12;15.13;;;;;;;8.60;82.49;101332.44;5565880;32;33683;-55
2022/11/28 09:51:51;;;;;;;27.55;15.45;;;;;;;8.39;65.46;101325.97;5561927;32;34181;-55
2022/11/28 09:55:15;;;;;;;27.25;16.30;;;;;;;8.54;72.34;101327.25;5566585;32;34372;-55
2022/11/28 09:58:56;;;;;;;25.85;15.38;;;;;;;8.21;65.30;101315.47;5564174;32;33624;-56
2022/11/28 10:02:08;;;;;;;23.67;14.32;;;;;;;8.17;67.38;101311.66;5564648;31;33066;-55
2022/11/28 10:05:26;;;;;;;24.05;14.40;;;;;;;8.29;69.76;101303.59;5559252;31;34031;-55
2022/11/28 10:08:46;;;;;;;25.45;15.48;;;;;;;8.21;66.01;101299.44;5567414;32;34220;-54
2022/11/28 10:12:05;;;;;;;22.60;14.48;;;;;;;8.20;68.76;101300.50;5566609;32;33796;-55
2022/11/28 10:15:19;;;;;;;26.77;15.20;;;;;;;7.95;66.09;101295.53;5563671;32;33715;-55
2022/11/28 10:18:21;;;;;;;23.87;15.07;;;;;;;7.98;70.03;101306.53;5561509;32;33544;-56
2022/11/28 10:21:34;;;;;;;25.50;15.43;;;;;;;8.30;81.82;101297.19;5565735;32;33757;-55
2022/11/28 10:24:43;;;;;;;26.77;16.67;;;;;;;8.18;67.59;101297.28;5559188;32;33810;-55
2022/11/28 10:27:46;;;;;;;25.98;15.88;;;;;;;7.95;67.54;101291.00;5561430;32;33780;-55
2022/11/28 10:31:02;;;;;;;32.33;16.67;;;;;;;7.89;66.75;101283.94;5565760;32;33729;-55
2022/11/28 10:34:15;;;;;;;43.65;17.23;;;;;;;7.69;69.52;101283.59;5567135;32;34336;-55
2022/11/28 10:37:24;;;;;;;28.60;17.08;;;;;;;7.84;69.12;101283.03;5567304;32;32818;-55
2022/11/28 10:40:50;;;;;;;27.83;17.27;;;;;;;7.92;83.56;101282.66;5554672;32;34283;-56
2022/11/28 10:44:15;;;;;;;30.67;17.25;;;;;;;8.19;69.60;101280.19;5562267;31;34286;-55
2022/11/28 10:47:47;;;;;;;29.00;17.48;;;;;;;8.06;68.84;101275.16;5560759;32;34210;-56
2022/11/28 10:51:02;;;;;;;27.80;16.02;;;;;;;7.95;67.83;101263.50;5562239;32;33834;-55
2022/11/28 10:54:16;;;;;;;28.20;16.60;;;;;;;7.84;71.87;101257.16;5565285;32;33743;-56
2022/11/28 10:57:43;;;;;;;29.67;17.75;;;;;;;7.88;69.19;101252.12;5563969;32;33678;-55
2022/11/28 11:00:48;;;;;;;29.55;17.30;;;;;;;7.88;71.25;101249.47;5556960;32;33819;-56
2022/11/28 11:03:51;;;;;;;29.43;17.27;;;;;;;7.90;68.90;101253.53;5565395;32;33547;-55
2022/11/28 11:07:16;;;;;;;30.48;18.17;;;;;;;8.12;70.46;101242.16;5563887;32;32121;-55
2022/11/28 11:10:48;;;;;;;33.30;18.58;;;;;;;7.99;68.89;101244.06;5558157;32;33617;-55
2022/11/28 11:14:01;;;;;;;34.83;18.65;;;;;;;7.88;69.91;101244.97;5565289;32;33881;-55
2022/11/28 11:17:03;;;;;;;29.58;17.85;;;;;;;7.90;71.14;101242.84;5565828;32;33804;-55
2022/11/28 11:20:26;;;;;;;34.30;20.27;;;;;;;7.96;79.26;101243.75;5566782;32;33755;-55
2022/11/28 11:23:28;;;;;;;30.33;17.48;;;;;;;8.32;79.76;101244.34;5559802;32;33649;-55
2022/11/28 11:26:40;;;;;;;36.15;18.80;;;;;;;8.54;77.23;101237.19;5564187;32;33617;-55
2022/11/28 11:29:43;;;;;;;32.47;20.35;;;;;;;8.48;67.95;101240.87;5557450;32;34402;-55
2022/11/28 11:32:48;;;;;;;31.75;19.65;;;;;;;8.35;75.92;101238.50;5562292;32;33769;-55
2022/11/28 11:35:53;;;;;;;30.88;18.55;;;;;;;8.65;77.16;101236.31;5567074;32;34409;-55
2022/11/28 11:39:14;;;;;;;40.85;19.30;;;;;;;8.34;79.06;101232.31;5561699;32;34329;-54
2022/11/28 11:42:24;;;;;;;34.83;20.17;;;;;;;8.41;81.88;101233.03;5567547;32;34315;-56
2022/11/28 11:45:36;;;;;;;34.22;19.58;;;;;;;8.23;67.81;101233.22;5564337;32;33403;-55
2022/11/28 11:48:43;;;;;;;35.55;19.85;;;;;;;8.17;67.95;101232.34;5561761;32;33868;-55
2022/11/28 11:51:55;;;;;;;32.65;18.77;;;;;;;7.92;68.42;101240.75;5566824;32;33880;-55
2022/11/28 11:55:14;;;;;;;35.35;19.95;;;;;;;8.20;90.80;101236.38;5567524;32;33700;-55
2022/11/28 11:58:24;;;;;;;34.42;19.80;;;;;;;8.40;78.63;101235.91;5568789;32;33979;-56
2022/11/28 12:01:29;;;;;;;35.50;18.85;;;;;;;8.24;76.08;101229.50;5558635;32;33688;-56
2022/11/28 12:04:43;;;;;;;29.52;18.05;;;;;;;8.24;79.48;101216.16;5567699;32;34391;-55
2022/11/28 12:08:10;;;;;;;35.55;19.12;;;;;;;8.14;79.00;101216.78;5566973;32;33703;-55
2022/11/28 12:11:20;;;;;;;33.60;18.67;;;;;;;8.04;65.89;101218.50;5557015;32;33282;-56
2022/11/28 12:14:30;;;;;;;34.22;19.00;;;;;;;7.98;68.84;101214.97;5557867;32;34295;-55
2022/11/28 12:17:38;;;;;;;30.60;18.98;;;;;;;7.93;68.75;101217.53;5557587;32;34570;-55
2022/11/28 12:21:18;;;;;;;32.63;19.27;;;;;;;7.93;65.80;101206.84;5565983;32;33792;-55
2022/11/28 12:24:32;;;;;;;31.40;18.27;;;;;;;7.92;65.87;101197.22;5563721;32;33279;-55
2022/11/28 12:28:04;;;;;;;34.97;21.10;;;;;;;7.93;71.63;101202.31;5564992;31;33634;-55
2022/11/28 12:31:21;;;;;;;33.35;20.77;;;;;;;8.09;81.92;101211.38;5557167;32;33728;-55
2022/11/28 12:34:33;;;;;;;34.90;19.50;;;;;;;8.30;76.98;101196.47;5560356;31;33876;-55
2022/11/28 12:38:05;;;;;;;35.65;21.67;;;;;;;8.18;74.83;101198.44;5550766;32;33842;-55
2022/11/28 12:41:26;;;;;;;34.85;20.67;;;;;;;8.18;68.48;101198.44;5566474;32;33242;-55
2022/11/28 12:45:14;;;;;;;34.90;19.33;;;;;;;8.38;76.48;101196.09;5557043;32;33642;-55
2022/11/28 12:48:35;;;;;;;34.22;20.90;;;;;;;8.26;68.96;101189.22;5562284;32;33661;-56
2022/11/28 12:51:47;;;;;;;35.95;21.27;;;;;;;8.21;68.32;101182.75;5559515;32;34267;-55
2022/11/28 12:55:04;;;;;;;40.40;24.00;;;;;;;8.20;66.99;101197.13;5566307;32;33654;-55
2022/11/28 12:58:18;;;;;;;43.75;28.85;;;;;;;8.06;65.91;101179.03;5560735;32;33811;-55
2022/11/28 13:01:32;;;;;;;39.78;21.30;;;;;;;8.03;77.84;101182.19;5558380;31;33664;-55
2022/11/28 13:04:44;;;;;;;33.77;20.93;;;;;;;8.32;75.00;101182.87;5564266;32;33758;-54
2022/11/28 13:08:07;;;;;;;33.78;19.95;;;;;;;8.45;71.39;101171.88;5562715;32;33460;-55
2022/11/28 13:11:30;;;;;;;33.40;20.15;;;;;;;8.59;79.45;101180.34;5564610;32;34333;-55
2022/11/28 13:14:51;;;;;;;34.10;19.45;;;;;;;8.64;73.14;101177.72;5560023;32;33531;-56
2022/11/28 13:18:31;;;;;;;36.10;21.27;;;;;;;8.75;75.37;101176.81;5563198;32;33680;-54
2022/11/28 13:22:00;;;;;;;35.78;21.70;;;;;;;8.58;73.21;101165.37;5555513;32;33242;-55
2022/11/28 13:25:50;;;;;;;31.35;19.73;;;;;;;8.54;71.63;101173.06;5563754;32;33360;-55
2022/11/28 13:28:58;;;;;;;39.03;19.90;;;;;;;8.74;74.31;101177.88;5559187;32;33697;-55
2022/11/28 13:32:15;;;;;;;34.15;19.87;;;;;;;8.51;69.40;101165.56;5559639;32;34478;-54
2022/11/28 13:35:19;;;;;;;37.15;20.80;;;;;;;8.63;74.87;101162.75;5568530;32;33772;-55
2022/11/28 13:38:38;;;;;;;34.15;20.95;;;;;;;8.44;83.51;101165.75;5566879;32;33582;-55
2022/11/28 13:42:03;;;;;;;32.13;18.37;;;;;;;8.47;78.85;101173.22;5570030;32;33982;-55
2022/11/28 13:45:33;;;;;;;31.27;19.17;;;;;;;8.58;76.87;101160.03;5557946;31;33733;-55
2022/11/28 13:48:35;;;;;;;33.13;19.42;;;;;;;8.35;68.82;101164.50;5566845;32;33839;-55
2022/11/28 13:52:34;;;;;;;30.48;18.20;;;;;;;8.38;84.13;101165.91;5563749;32;34321;-57
2022/11/28 13:55:39;;;;;;;33.35;18.83;;;;;;;8.30;78.36;101166.28;5539138;32;33766;-54
2022/11/28 13:58:51;;;;;;;31.73;20.05;;;;;;;8.49;79.52;101164.97;5565412;32;33622;-55
2022/11/28 14:01:58;;;;;;;32.90;18.30;;;;;;;8.40;83.06;101167.25;5569673;32;33720;-55
2022/11/28 14:05:01;;;;;;;34.53;19.58;;;;;;;8.68;76.11;101157.50;5568614;32;34463;-55
2022/11/28 14:08:06;;;;;;;36.47;20.25;;;;;;;8.75;71.17;101155.44;5568845;32;33643;-55
2022/11/28 14:11:41;;;;;;;30.90;19.02;;;;;;;8.84;77.21;101161.97;5569542;32;33675;-55
2022/11/28 14:14:54;;;;;;;31.83;19.52;;;;;;;8.82;72.83;101158.72;5568702;31;33411;-55
2022/11/28 14:18:31;;;;;;;37.33;19.98;;;;;;;8.72;74.12;101152.44;5568646;32;33630;-55
2022/11/28 14:22:26;;;;;;;35.00;19.80;;;;;;;8.48;71.26;101155.34;5562037;32;33388;-55
2022/11/28 14:25:39;;;;;;;31.33;18.83;;;;;;;8.55;76.74;101149.84;5566670;32;34356;-55
2022/11/28 14:28:43;;;;;;;33.53;19.60;;;;;;;8.32;71.71;101151.63;5568809;32;34484;-55
2022/11/28 14:31:47;;;;;;;32.60;19.50;;;;;;;8.44;76.15;101151.53;5568765;32;33645;-55
2022/11/28 14:35:47;;;;;;;33.78;19.35;;;;;;;8.22;75.82;101162.97;5567379;32;34324;-55
2022/11/28 14:39:14;;;;;;;34.55;19.80;;;;;;;8.54;75.66;101150.88;5562775;32;33794;-55
2022/11/28 14:42:24;;;;;;;35.55;19.48;;;;;;;8.24;68.11;101146.69;5567578;32;33436;-55
2022/11/28 14:45:49;;;;;;;35.28;19.08;;;;;;;8.00;73.51;101146.88;5565260;32;34384;-55
2022/11/28 14:48:57;;;;;;;37.80;20.25;;;;;;;8.19;78.05;101149.31;5564556;32;34249;-56
2022/11/28 14:52:04;;;;;;;39.88;20.75;;;;;;;7.97;78.89;101147.38;5566006;31;33745;-56
2022/11/28 14:55:27;;;;;;;32.70;19.77;;;;;;;7.94;71.72;101147.84;5565600;32;33563;-54
2022/11/28 14:58:30;;;;;;;38.47;20.05;;;;;;;7.84;73.56;101147.69;5569321;32;33697;-55
2022/11/28 15:02:01;;;;;;;34.70;20.67;;;;;;;7.86;85.77;101150.16;5565608;32;34321;-55
2022/11/28 15:05:22;;;;;;;39.03;20.08;;;;;;;7.79;72.56;101150.31;5558988;32;33635;-55
2022/11/28 15:08:38;;;;;;;36.45;20.62;;;;;;;7.90;71.64;101149.41;5549869;32;34324;-55
2022/11/28 15:12:10;;;;;;;34.00;18.85;;;;;;;7.89;77.99;101144.31;5549838;32;34356;-55
2022/11/28 15:15:15;;;;;;;45.92;21.20;;;;;;;7.65;71.67;101143.66;5550102;32;33345;-55
2022/11/28 15:18:20;;;;;;;37.80;20.67;;;;;;;7.37;73.16;101152.53;5550196;32;34600;-56
2022/11/28 15:21:22;;;;;;;38.55;21.77;;;;;;;7.33;71.43;101157.53;5568706;32;33757;-55
2022/11/28 15:24:36;;;;;;;40.00;22.13;;;;;;;7.21;72.67;101159.44;5566603;32;33476;-55
2022/11/28 15:27:38;;;;;;;35.72;20.55;;;;;;;7.22;76.49;101166.41;5549882;32;33506;-55
2022/11/28 15:30:48;;;;;;;40.00;21.90;;;;;;;7.13;80.00;101162.47;5560974;32;34508;-56
2022/11/28 15:33:51;;;;;;;39.22;22.75;;;;;;;7.17;74.86;101159.09;5565606;32;34446;-55
2022/11/28 15:36:57;;;;;;;40.38;22.60;;;;;;;7.15;72.79;101157.72;5569108;32;33549;-55
2022/11/28 15:40:03;;;;;;;39.90;23.00;;;;;;;7.10;76.42;101154.97;5569223;32;33772;-55
2022/11/28 15:43:05;;;;;;;42.28;22.20;;;;;;;7.14;78.91;101162.22;5555271;32;33767;-54
2022/11/28 15:46:29;;;;;;;40.72;22.25;;;;;;;7.19;73.93;101157.00;5569047;32;33749;-55
2022/11/28 15:49:37;;;;;;;40.00;22.58;;;;;;;7.12;79.04;101164.34;5569074;32;34425;-55
2022/11/28 15:52:39;;;;;;;42.35;24.42;;;;;;;7.14;72.94;101169.44;5568031;32;33372;-55
2022/11/28 15:55:42;;;;;;;45.53;24.33;;;;;;;6.94;72.45;101172.50;5568847;32;33623;-55
2022/11/28 15:58:46;;;;;;;41.25;22.87;;;;;;;6.90;74.00;101169.50;5568404;31;33400;-55
2022/11/28 16:01:49;;;;;;;43.45;22.23;;;;;;;6.77;78.34;101172.44;5569012;32;34506;-55
2022/11/28 16:05:06;;;;;;;38.08;22.35;;;;;;;6.74;83.31;101175.56;5567582;32;34456;-55
2022/11/28 16:08:22;;;;;;;48.80;23.20;;;;;;;7.03;85.96;101182.56;5569257;32;33942;-55
2022/11/28 16:11:29;;;;;;;42.80;25.67;;;;;;;6.94;87.69;101185.84;5569004;32;33631;-55
2022/11/28 16:14:36;;;;;;;;;;;;;;;6.78;77.33;101182.03;5561378;32;33850;-55
2022/11/28 16:17:39;;;;;;;43.38;22.45;;;;;;;6.90;80.86;101177.50;5549545;32;34123;-55
2022/11/28 16:20:42;;;;;;;38.72;22.60;;;;;;;6.74;75.25;101188.88;5549439;32;34341;-55
2022/11/28 16:23:44;;;;;;;42.03;24.37;;;;;;;6.91;78.76;101183.63;5563511;32;33607;-55
2022/11/28 16:26:55;;;;;;;35.38;22.20;;;;;;;6.94;80.96;101185.84;5556076;32;34449;-55
2022/11/28 16:29:59;;;;;;;40.12;21.87;;;;;;;7.12;79.25;101184.84;5568631;32;34298;-57
2022/11/28 16:33:22;;;;;;;44.13;23.90;;;;;;;7.07;81.98;101174.91;5559035;32;33443;-55
2022/11/28 16:36:37;;;;;;;39.38;22.62;;;;;;;7.02;72.99;101191.62;5568656;32;33509;-55
2022/11/28 16:39:40;;;;;;;55.72;34.15;;;;;;;6.80;72.40;101180.75;5561923;32;33733;-56
2022/11/28 16:42:50;;;;;;;41.17;24.40;;;;;;;6.84;86.05;101183.78;5556961;32;33511;-56
2022/11/28 16:45:58;;;;;;;40.58;23.05;;;;;;;6.63;74.99;101179.06;5568442;32;33333;-55
